LFMT/MPL METAR and TAF weather

Enter ICAO airport designator
Station Type Date Time Source
LFMT METAR 2019/06/17 05:30 UTC NOAA

LFMT 170530Z AUTO VRB02KT CAVOK 19/13 Q1016 NOSIG


Station Type Date Time Source
LFMT Decoded METAR 2019/06/17 05:30 UTC NOAA

Montpellier, France (LFMT) 43-35N 003-58E 6M
Jun 17, 2019 - 01:30 AM EDT / 2019.06.17 0530 UTC
Wind: Variable at 2 MPH (2 KT):0
Visibility: greater than 7 mile(s):0
Temperature: 66 F (19 C)
Dew Point: 55 F (13 C)
Relative Humidity: 68%
Pressure (altimeter): 30.00 in. Hg (1016 hPa)
ob: LFMT 170530Z AUTO VRB02KT CAVOK 19/13 Q1016 NOSIG
cycle: 5

Station Type Date Time Source
LFMT TAF 2019/06/17 03:42 UTC NOAA

TAF LFMT 170200Z 1703/1803 VRB03KT CAVOK
BECMG 1709/1712 20012KT
BECMG 1722/1724 VRB04KT PROB30
TEMPO 1801/1803 2000 BR

Example: see airport list